Latest Coastal Weather Observations for Rottnest Island

IDW60701

Issued at 2:12 am WST Thursday 28 May 2015 (issued every 10 minutes, with the page automatically refreshed every 10 minutes)

About coastal observations | Map of coastal stations | Coastal observations for WA | Marine services | Other Formats
Station Details ID: 009193 Name: ROTTNEST ISLAND Lat: -32.01 Lon: 115.50 Height: 43.1 m
Data from the previous 72 hours. | See also: Recent months at Rottnest Island
Date/Time
WST
Temp

°C
Wind Pressure Rain
since 9am
mm
Weather Cloud Vis
km
Sea
Height
m
Swell
Dir
 
Speed
knots
Gust
knots
hPa Trend Height
m
Period
s
Dir
28/02:00am 14.0 ENE 8 9 1021.8 - 0.0 - - - - - - -
28/01:30am 14.0 ENE 8 10 1021.6 - 0.0 - - - - - - -
28/01:00am 14.3 ENE 8 11 1021.7 - 0.0 - - - - - - -
28/12:30am 14.7 ENE 9 11 1021.9 - 0.0 - - - - - - -
28/12:00am 14.4 ENE 9 11 1022.0 - 0.0 - - - - - - -
 
Date/Time
WST
Temp

°C
Wind Pressure Rain
since 9am
mm
Weather Cloud Vis
km
Sea
Height
m
Swell
Dir
 
Speed
knots
Gust
knots
hPa Trend Height
m
Period
s
Dir
27/11:30pm 14.5 ENE 8 10 1022.0 - 0.0 - - - - - - -
27/11:00pm 14.2 E 8 11 1022.1 - 0.0 - - - - - - -
27/10:30pm 14.7 E 7 10 1022.2 - 0.0 - - - - - - -
27/10:00pm 15.2 E 8 11 1022.0 - 0.0 - - - - - - -
27/09:30pm 15.4 E 7 9 1022.3 - 0.0 - - - - - - -
27/09:00pm 15.6 ESE 10 16 1022.1 - 0.0 - - - - - - -
27/08:30pm 15.8 SE 13 19 1021.8 - 0.0 - - - - - - -
27/08:00pm 15.8 SE 13 19 1021.9 - 0.0 - - - - - - -
27/07:30pm 16.4 SSE 17 23 1021.5 - 0.0 - - - - - - -
27/07:00pm 16.4 SSE 16 21 1021.2 - 0.0 - - - - - - -
27/06:30pm 16.4 SSE 19 26 1020.8 - 0.0 - - - - - - -
27/06:00pm 16.3 SSE 18 23 1020.6 - 0.0 - - - - - - -
27/05:30pm 16.4 SSE 18 23 1020.7 - 0.0 - - - - - - -
27/05:00pm 16.4 SSE 18 24 1020.5 - 0.0 - - - - - - -
27/04:30pm 16.5 S 15 20 1020.6 - 0.0 - - - - - - -
27/04:00pm 16.8 SSE 17 22 1020.7 - 0.0 - - - - - - -
27/03:30pm 16.6 SSE 11 16 1020.8 - 0.0 - - - - - - -
27/03:00pm 16.5 SSE 16 21 1020.9 - 0.0 - - - - - - -
27/02:30pm 17.0 SSE 15 21 1020.8 - 0.0 - - - - - - -
27/02:00pm 17.0 SSE 15 20 1021.0 - 0.0 - - - - - - -
27/01:30pm 17.3 SSE 14 17 1021.3 - 0.0 - - - - - - -
27/01:00pm 16.1 SE 13 19 1021.6 - 0.0 - - - - - - -
27/12:30pm 16.6 SSE 14 18 1022.0 - 0.0 - - - - - - -
27/12:00pm 16.1 SE 15 20 1022.4 - 0.0 - - - - - - -
27/11:30am 16.0 SE 14 19 1022.9 - 0.0 - - - - - - -
27/11:00am 16.1 SE 12 16 1023.5 - 0.0 - - - - - - -
27/10:30am 16.0 SE 13 18 1023.8 - 0.0 - - - - - - -
27/10:00am 15.7 SE 11 17 1023.9 - 0.0 - - - - - - -
27/09:30am 15.5 ESE 12 17 1023.5 - 0.0 - - - - - - -
27/09:00am 15.2 SE 10 15 1023.5 - 0.8 - - - - - - -
27/08:30am 15.1 SE 9 13 1023.6 - 0.8 - - - - - - -
27/08:00am 13.7 ESE 7 8 1023.5 - 0.8 - - - - - - -
27/07:30am 13.1 E 7 8 1023.2 - 0.8 - - - - - - -
27/07:00am 12.8 E 8 10 1023.0 - 0.8 - - - - - - -
27/06:30am 12.9 E 8 11 1022.8 - 0.8 - - - - - - -
27/06:00am 13.1 E 8 9 1022.4 - 0.8 - - - - - - -
27/05:30am 13.2 E 8 11 1022.2 - 0.8 - - - - - - -
27/05:00am 13.2 E 7 9 1022.1 - 0.8 - - - - - - -
27/04:30am 13.1 E 7 9 1022.0 - 0.8 - - - - - - -
27/04:00am 13.4 ESE 7 10 1022.1 - 0.8 - - - - - - -
27/03:30am 13.8 ESE 7 10 1022.4 - 0.8 - - - - - - -
27/03:00am 14.1 SE 8 11 1022.4 - 0.8 - - - - - - -
27/02:30am 14.0 SE 9 14 1022.5 - 0.8 - - - - - - -
27/02:00am 14.4 SE 13 16 1022.5 - 0.8 - - - - - - -
27/01:30am 15.1 SE 13 17 1022.4 - 0.8 - - - - - - -
27/01:00am 15.0 ESE 8 12 1022.5 - 0.8 - - - - - - -
27/12:30am 15.2 SE 9 12 1022.6 - 0.8 - - - - - - -
27/12:00am 15.5 SE 10 14 1022.7 - 0.8 - - - - - - -
 
Date/Time
WST
Temp

°C
Wind Pressure Rain
since 9am
mm
Weather Cloud Vis
km
Sea
Height
m
Swell
Dir
 
Speed
knots
Gust
knots
hPa Trend Height
m
Period
s
Dir
26/11:30pm 15.8 SE 11 15 1022.8 - 0.8 - - - - - - -
26/11:00pm 16.0 SSE 11 15 1023.0 - 0.8 - - - - - - -
26/10:30pm 16.2 SE 15 18 1023.0 - 0.8 - - - - - - -
26/10:00pm 16.7 SSE 11 14 1023.2 - 0.8 - - - - - - -
26/09:30pm 16.8 SSE 12 17 1023.3 - 0.8 - - - - - - -
26/09:00pm 16.8 S 11 16 1023.1 - 0.8 - - - - - - -
26/08:30pm 16.7 S 10 12 1023.3 - 0.8 - - - - - - -
26/08:00pm 16.6 SSE 9 13 1023.2 - 0.8 - - - - - - -
26/07:30pm 16.5 S 11 14 1023.1 - 0.8 - - - - - - -
26/07:00pm 16.4 CALM 0 0 1022.9 - 0.8 - - - - - - -
26/06:30pm 16.4 CALM 0 0 1022.7 - 0.8 - - - - - - -
26/06:00pm 16.5 CALM 0 2 1022.5 - 0.8 - - - - - - -
26/05:30pm 16.4 CALM 0 0 1022.4 - 0.8 - - - - - - -
26/05:00pm 16.7 CALM 0 0 1022.4 - 0.8 - - - - - - -
26/04:30pm 16.9 S 3 4 1022.4 - 0.8 - - - - - - -
26/04:00pm 16.9 SSE 3 4 1022.4 - 0.8 - - - - - - -
26/03:30pm 16.9 NNW 2 4 1022.4 - 0.8 - - - - - - -
26/03:00pm 16.9 NNW 4 6 1022.4 - 0.8 Recent precip. - - - - - -
26/02:30pm 16.1 NNW 5 5 1022.2 - 0.8 - - - - - - -
26/02:00pm 15.9 NNW 7 8 1022.6 - 0.4 - - - - - - -
26/01:30pm 16.2 W 6 8 1022.7 - 0.4 - - - - - - -
26/01:00pm 16.2 S 5 7 1022.7 - 0.4 - - - - - - -
26/12:30pm 16.8 SSE 5 8 1022.9 - 0.2 - - - - - - -
26/12:00pm 16.4 SE 9 13 1023.2 - 0.2 Recent precip. - - - - - -
26/11:30am 15.9 SE 6 11 1023.8 - 0.2 - - - - - - -
26/11:00am 17.9 SE 10 15 1023.4 - 0.0 - - - - - - -
26/10:30am 18.8 SW 10 13 1023.7 - 0.0 - - - - - - -
26/10:00am 19.3 WSW 8 10 1023.7 - 0.0 - - - - - - -
26/09:30am 19.1 WSW 16 20 1023.6 - 0.0 - - - - - - -
26/09:00am 18.6 SW 14 18 1023.4 - 0.0 - - - - - - -
26/08:30am 18.6 WSW 10 13 1023.2 - 0.0 - - - - - - -
26/08:00am 18.1 SW 9 13 1023.0 - 0.0 - - - - - - -
26/07:30am 17.0 WSW 7 9 1022.8 - 0.0 - - - - - - -
26/07:00am 17.0 WSW 6 9 1022.6 - 0.0 - - - - - - -
26/06:30am 16.8 WSW 8 9 1022.4 - 0.0 - - - - - - -
26/06:00am 16.8 SW 11 14 1022.1 - 0.0 - - - - - - -
26/05:30am 16.8 SW 10 13 1021.9 - 0.0 - - - - - - -
26/05:00am 17.0 SW 11 14 1021.7 - 0.0 - - - - - - -
26/04:30am 17.3 SW 11 13 1021.5 - 0.0 - - - - - - -
26/04:00am 17.6 SW 12 14 1021.7 - 0.0 - - - - - - -
26/03:30am 17.8 SW 12 15 1021.6 - 0.0 - - - - - - -
26/03:00am 17.7 SW 11 14 1021.7 - 0.0 - - - - - - -
26/02:30am 17.6 SW 10 12 1021.8 - 0.0 - - - - - - -
26/02:00am 17.7 SW 12 15 1021.8 - 0.0 - - - - - - -
26/01:30am 17.9 SW 11 14 1021.9 - 0.0 - - - - - - -
26/01:00am 17.8 SW 11 14 1021.9 - 0.0 - - - - - - -
26/12:30am 18.2 SSW 12 16 1022.0 - 0.0 - - - - - - -
26/12:00am 17.9 SW 10 13 1022.1 - 0.0 - - - - - - -
 
Date/Time
WST
Temp

°C
Wind Pressure Rain
since 9am
mm
Weather Cloud Vis
km
Sea
Height
m
Swell
Dir
 
Speed
knots
Gust
knots
hPa Trend Height
m
Period
s
Dir
25/11:30pm 17.4 SSW 6 7 1022.4 - 0.0 - - - - - - -
25/11:00pm 17.4 S 8 10 1022.5 - 0.0 - - - - - - -
25/10:30pm 17.9 SSW 9 11 1022.6 - 0.0 - - - - - - -
25/10:00pm 17.7 SSW 11 14 1022.5 - 0.0 - - - - - - -
25/09:30pm 18.0 SSW 11 13 1022.5 - 0.0 - - - - - - -
25/09:00pm 17.6 SSW 9 12 1022.3 - 0.0 - - - - - - -
25/08:30pm 16.9 SW 9 11 1022.3 - 0.0 - - - - - - -
25/08:00pm 17.3 SW 9 13 1022.0 - 0.0 - - - - - - -
25/07:30pm 16.8 SW 9 13 1021.8 - 0.0 - - - - - - -
25/07:00pm 16.7 WSW 8 10 1021.5 - 0.0 - - - - - - -
25/06:30pm 17.0 WSW 7 8 1021.4 - 0.0 - - - - - - -
25/06:00pm 17.3 WSW 6 7 1021.2 - 0.0 - - - - - - -
25/05:30pm 17.4 W 6 7 1021.1 - 0.0 - - - - - - -
25/05:00pm 18.6 WSW 4 5 1020.8 - 0.0 - - - - - - -
25/04:30pm 19.2 SW 5 6 1020.8 - 0.0 - - - - - - -
25/04:00pm 19.1 SW 6 7 1020.8 - 0.0 - - - - - - -
25/03:30pm 19.5 SSW 6 9 1020.7 - 0.0 - - - - - - -
25/03:00pm 19.3 SSE 6 8 1020.8 - 0.0 - - - - - - -
25/02:30pm 19.3 S 6 8 1020.6 - 0.0 - - - - - - -
25/02:00pm 19.3 SSE 5 8 1020.6 - 0.0 - - - - - - -
25/01:30pm 19.8 SSE 5 7 1020.7 - 0.0 - - - - - - -
25/01:00pm 19.1 SSE 6 8 1020.8 - 0.0 - - - - - - -
25/12:30pm 19.1 SSE 6 8 1021.2 - 0.0 - - - - - - -
25/12:00pm 19.0 S 7 9 1021.5 - 0.0 - - - - - - -
25/11:30am 19.1 S 5 8 1021.8 - 0.0 - - - - - - -
25/11:00am 20.0 NE 1 4 1022.1 - 0.0 - - - - - - -
25/10:30am 18.8 NE 4 6 1022.3 - 0.0 - - - - - - -
25/10:00am 18.3 NE 4 6 1022.4 - 0.0 - - - - - - -
25/09:30am 17.8 ENE 6 8 1022.3 - 0.0 - - - - - - -
25/09:00am 17.3 E 6 8 1022.3 - 0.0 - - - - - - -
25/08:30am 16.4 E 6 9 1022.1 - 0.0 - - - - - - -
25/08:00am 15.1 E 8 9 1021.8 - 0.0 - - - - - - -
25/07:30am 15.0 E 7 8 1021.7 - 0.0 - - - - - - -
25/07:00am 14.6 E 8 9 1021.6 - 0.0 - - - - - - -
25/06:30am 15.1 E 7 8 1021.2 - 0.0 - - - - - - -
25/06:00am 15.0 E 7 8 1021.0 - 0.0 - - - - - - -
25/05:30am 15.2 E 8 9 1021.0 - 0.0 - - - - - - -
25/05:00am 15.7 E 7 9 1021.1 - 0.0 - - - - - - -
25/04:30am 15.5 E 7 8 1021.1 - 0.0 - - - - - - -
25/04:00am 15.6 E 8 10 1021.0 - 0.0 - - - - - - -
25/03:30am 16.1 E 8 9 1021.2 - 0.0 - - - - - - -
25/03:00am 16.6 ESE 7 9 1021.5 - 0.0 - - - - - - -
25/02:30am 16.7 SE 7 10 1021.4 - 0.0 - - - - - - -

Other Formats:

Comma delimited format used in spreadsheet applications
http://www.bom.gov.au/fwo/IDW60701/IDW60701.94602.axf

JavaScript Object Notation format (JSON) in row-major order
http://www.bom.gov.au/fwo/IDW60701/IDW60701.94602.json